Amarone — SBGA — position and weather

sailwx.info

Track history (hours):
 
Tides and Currents Weather Stations Pressure Air Temp Water Temp Dewpoint Dewpoint Depression Visibility Wind Speed Wind Dir Waves Ship Positions

Amarone

Last reported at 2018-Mar-17 19:19 UTC. Time now 2018-Apr-26 03:46 UTC.
Position N 18°02' W 063°05'.
Warning: this ship's position is 39 days out of date.

Length 14 m.

Type: Pleasure craft. MMSI: 265595750.

Date/timePositionNaut miles runAvg speedWind from/ knotsBaromVisibWave heightAir tempDewpointWater temp
2018-Mar-17 19:19N 18°02' W 063°05'1 2.0
2018-Mar-17 19:00N 18°02' W 063°06'0 0.2
2018-Mar-17 18:29N 18°02' W 063°06'0 0.1
2018-Mar-17 17:52N 18°02' W 063°06'1 1.7
2018-Mar-17 17:30N 18°02' W 063°06'2 2.9
2018-Mar-17 16:58N 18°02' W 063°08'2 4.5
2018-Mar-17 16:29N 18°01' W 063°10'3 5.9
2018-Mar-17 15:59N 18°04' W 063°10'2 3.7
2018-Mar-17 15:30N 18°05' W 063°12'3 5.9
2018-Mar-17 14:57N 18°04' W 063°15'3 6.7
2018-Mar-17 14:29N 18°02' W 063°18'2 3.5
2018-Mar-17 14:00N 18°03' W 063°20'2 3.2
2018-Mar-17 13:30N 18°04' W 063°21'3 6.3
2018-Mar-17 12:59N 18°01' W 063°23'2 3.5
2018-Mar-17 12:29N 18°02' W 063°25'  
Track history (hours):
 
Tides and Currents Weather Stations Pressure Air Temp Water Temp Dewpoint Dewpoint Depression Visibility Wind Speed Wind Dir Waves Ship Positions

Amarone

Last reported at 2018-Mar-17 19:19 UTC. Time now 2018-Apr-26 03:46 UTC.
Position N 18°02' W 063°05'.
Warning: this ship's position is 39 days out of date.

Length 14 m.

Type: Pleasure craft. MMSI: 265595750.

Date/timePositionNaut miles runAvg speedWind from/ knotsBaromVisibWave heightAir tempDewpointWater temp
2018-Mar-17 19:19N 18°02' W 063°05'1 2.0
2018-Mar-17 19:00N 18°02' W 063°06'0 0.2
2018-Mar-17 18:29N 18°02' W 063°06'0 0.1
2018-Mar-17 17:52N 18°02' W 063°06'1 1.7
2018-Mar-17 17:30N 18°02' W 063°06'2 2.9
2018-Mar-17 16:58N 18°02' W 063°08'2 4.5
2018-Mar-17 16:29N 18°01' W 063°10'3 5.9
2018-Mar-17 15:59N 18°04' W 063°10'2 3.7
2018-Mar-17 15:30N 18°05' W 063°12'3 5.9
2018-Mar-17 14:57N 18°04' W 063°15'3 6.7
2018-Mar-17 14:29N 18°02' W 063°18'2 3.5
2018-Mar-17 14:00N 18°03' W 063°20'2 3.2
2018-Mar-17 13:30N 18°04' W 063°21'3 6.3
2018-Mar-17 12:59N 18°01' W 063°23'2 3.5
2018-Mar-17 12:29N 18°02' W 063°25'  

Dump ship's entire track history